createdAt,value
2023-05-23T00:00:14.267Z,99.83
2023-05-23T00:03:02.728Z,99.44
2023-05-23T00:09:08.949Z,98.42
2023-05-23T00:15:13.502Z,98.70
2023-05-23T00:18:00.374Z,98.53
2023-05-23T00:20:46.985Z,97.85
2023-05-23T00:23:33.867Z,97.55
2023-05-23T00:26:29.911Z,97.69
2023-05-23T00:29:22.478Z,97.94
2023-05-23T00:32:17.069Z,98.03
2023-05-23T00:35:10.407Z,98.23
2023-05-23T00:38:03.330Z,98.61
2023-05-23T00:40:55.856Z,98.57
2023-05-23T00:43:48.659Z,98.35
2023-05-23T00:46:42.680Z,98.82
2023-05-23T00:49:37.266Z,99.79
2023-05-23T00:52:29.323Z,100.00
2023-05-23T00:55:21.681Z,100.00
2023-05-23T00:58:15.207Z,100.00
2023-05-23T01:01:09.483Z,100.00
2023-05-23T01:04:04.336Z,100.00
2023-05-23T01:10:10.208Z,100.00
2023-05-23T01:16:34.224Z,100.00
2023-05-23T01:19:44.633Z,100.00
2023-05-23T01:22:45.823Z,100.00
2023-05-23T01:29:10.202Z,99.74
2023-05-23T01:32:03.707Z,99.88
2023-05-23T01:34:56.761Z,100.00
2023-05-23T01:37:49.710Z,99.66
2023-05-23T01:40:42.354Z,99.96
2023-05-23T01:46:53.170Z,100.00
2023-05-23T01:49:46.254Z,100.00
2023-05-23T01:52:34.940Z,100.00
2023-05-23T01:55:27.828Z,100.00
2023-05-23T01:58:21.124Z,100.00
2023-05-23T02:01:13.770Z,100.00
2023-05-23T02:04:01.589Z,100.00
2023-05-23T02:06:54.535Z,100.00
2023-05-23T02:09:47.505Z,100.00
2023-05-23T02:12:40.910Z,100.00
2023-05-23T02:18:46.903Z,100.00
2023-05-23T02:21:41.187Z,100.00
2023-05-23T02:27:49.988Z,100.00
2023-05-23T02:33:58.986Z,100.00
2023-05-23T02:36:52.966Z,100.00
2023-05-23T02:39:45.799Z,100.00
2023-05-23T02:42:39.728Z,100.00
2023-05-23T02:45:32.420Z,100.00
2023-05-23T02:48:41.663Z,99.82
2023-05-23T02:51:32.660Z,99.70
2023-05-23T02:58:13.082Z,99.78
2023-05-23T03:01:34.009Z,99.62
2023-05-23T03:04:27.604Z,99.53
2023-05-23T03:10:32.959Z,99.42
2023-05-23T03:13:26.669Z,99.35
2023-05-23T03:16:19.478Z,98.98
2023-05-23T03:19:11.719Z,98.76
2023-05-23T03:22:04.614Z,98.81
2023-05-23T03:24:57.732Z,98.26
2023-05-23T03:31:13.093Z,98.68
2023-05-23T03:34:06.200Z,98.19
2023-05-23T03:36:58.816Z,98.21
2023-05-23T03:39:52.340Z,98.04
2023-05-23T03:42:44.461Z,98.13
2023-05-23T03:45:37.378Z,98.64
2023-05-23T03:48:38.836Z,99.68
2023-05-23T03:51:32.679Z,99.02
2023-05-23T03:54:25.793Z,99.02
2023-05-23T03:57:18.835Z,99.14
2023-05-23T04:03:26.088Z,100.00
2023-05-23T04:06:22.705Z,100.00
2023-05-23T04:09:15.564Z,100.00
2023-05-23T04:12:11.864Z,100.00
2023-05-23T04:15:05.072Z,100.00
2023-05-23T04:21:12.174Z,100.00
2023-05-23T04:27:17.338Z,100.00
2023-05-23T04:30:12.164Z,100.00
2023-05-23T04:33:13.992Z,100.00
2023-05-23T04:36:09.132Z,100.00
2023-05-23T04:39:05.084Z,100.00
2023-05-23T04:42:29.198Z,100.00
2023-05-23T04:45:28.532Z,100.00
2023-05-23T04:48:27.985Z,100.00
2023-05-23T04:51:22.537Z,100.00
2023-05-23T04:54:20.907Z,100.00
2023-05-23T04:57:13.836Z,100.00
2023-05-23T05:00:10.321Z,100.00
2023-05-23T05:03:03.683Z,100.00
2023-05-23T05:09:12.996Z,100.00
2023-05-23T05:15:21.350Z,100.00
2023-05-23T05:18:18.786Z,100.00
2023-05-23T05:21:12.781Z,100.00
2023-05-23T05:24:09.524Z,100.00
2023-05-23T05:27:02.694Z,100.00
2023-05-23T05:29:58.327Z,100.00
2023-05-23T05:32:52.883Z,100.00
2023-05-23T05:35:45.908Z,100.00
2023-05-23T05:38:56.079Z,100.00
2023-05-23T05:41:45.903Z,100.00
2023-05-23T05:48:02.159Z,100.00
2023-05-23T05:54:02.520Z,100.00
2023-05-23T06:00:15.130Z,100.00
2023-05-23T06:03:21.377Z,100.00
2023-05-23T06:06:19.968Z,100.00
2023-05-23T06:09:13.658Z,100.00
2023-05-23T06:12:07.495Z,100.00
2023-05-23T06:14:59.586Z,99.84
2023-05-23T06:17:52.907Z,100.00
2023-05-23T06:24:00.330Z,99.49
2023-05-23T06:26:52.626Z,99.33
2023-05-23T06:29:45.870Z,99.31
2023-05-23T06:32:38.940Z,99.72
2023-05-23T06:35:32.104Z,99.09
2023-05-23T06:38:27.790Z,100.00
2023-05-23T06:41:22.569Z,100.00
2023-05-23T06:44:17.941Z,99.77
2023-05-23T06:47:10.325Z,99.78
2023-05-23T06:50:03.825Z,99.66
2023-05-23T06:52:58.553Z,100.00
2023-05-23T06:59:28.848Z,100.00
2023-05-23T07:02:58.949Z,100.00
2023-05-23T07:05:52.198Z,100.00
2023-05-23T07:09:03.726Z,100.00
2023-05-23T07:11:54.361Z,100.00
2023-05-23T07:18:36.887Z,100.00
2023-05-23T07:21:43.833Z,100.00
2023-05-23T07:24:38.738Z,100.00
2023-05-23T07:27:32.788Z,100.00
2023-05-23T07:30:21.336Z,100.00
2023-05-23T07:33:14.365Z,100.00
2023-05-23T07:36:10.052Z,100.00
2023-05-23T07:39:02.619Z,100.00
2023-05-23T07:41:55.316Z,100.00
2023-05-23T07:44:48.463Z,100.00
2023-05-23T07:47:42.444Z,100.00
2023-05-23T07:50:35.743Z,100.00
2023-05-23T07:53:29.859Z,100.00
2023-05-23T07:56:24.034Z,100.00
2023-05-23T07:59:16.714Z,100.00
2023-05-23T08:02:10.826Z,100.00
2023-05-23T08:08:25.543Z,100.00
2023-05-23T08:14:50.607Z,100.00
2023-05-23T08:17:49.868Z,100.00
2023-05-23T08:24:05.048Z,100.00
2023-05-23T08:26:58.675Z,100.00
2023-05-23T08:33:07.154Z,100.00
2023-05-23T08:39:14.238Z,100.00
2023-05-23T08:42:14.542Z,99.38
2023-05-23T08:45:08.825Z,99.25
2023-05-23T08:48:02.638Z,99.41
2023-05-23T08:50:59.403Z,98.95
2023-05-23T08:53:53.581Z,100.00
2023-05-23T08:56:49.087Z,100.00
2023-05-23T08:59:42.223Z,100.00
2023-05-23T09:02:34.733Z,99.43
2023-05-23T09:05:39.948Z,100.00
2023-05-23T09:08:35.000Z,99.59
2023-05-23T09:11:24.188Z,98.53
2023-05-23T09:14:17.981Z,97.93
2023-05-23T09:17:11.480Z,97.45
2023-05-23T09:23:23.700Z,96.20
2023-05-23T09:26:17.889Z,95.69
2023-05-23T09:29:10.764Z,95.39
2023-05-23T09:35:16.487Z,95.92
2023-05-23T09:41:26.523Z,95.55
2023-05-23T09:44:24.440Z,95.44
2023-05-23T09:47:17.186Z,95.41
2023-05-23T09:50:10.184Z,96.04
2023-05-23T09:53:02.631Z,95.99
2023-05-23T09:55:57.129Z,96.06
2023-05-23T09:58:51.816Z,95.19
2023-05-23T10:01:46.046Z,95.63
2023-05-23T10:04:41.212Z,94.88
2023-05-23T10:07:34.328Z,94.17
2023-05-23T10:13:42.093Z,94.16
2023-05-23T10:16:40.078Z,94.89
2023-05-23T10:19:38.516Z,94.63
2023-05-23T10:25:43.107Z,91.89
2023-05-23T10:28:35.962Z,92.08
2023-05-23T10:31:22.386Z,91.75
2023-05-23T10:34:16.559Z,89.93
2023-05-23T10:37:04.514Z,89.61
2023-05-23T10:39:58.553Z,89.39
2023-05-23T10:42:50.907Z,89.24
2023-05-23T10:45:43.187Z,88.81
2023-05-23T10:52:09.006Z,90.76
2023-05-23T10:58:13.619Z,89.41
2023-05-23T11:01:02.129Z,89.21
2023-05-23T11:07:33.373Z,90.41
2023-05-23T11:10:25.576Z,88.37
2023-05-23T11:13:21.356Z,86.41
2023-05-23T11:16:26.521Z,84.88
2023-05-23T11:19:27.841Z,80.37
2023-05-23T11:22:21.402Z,79.03
2023-05-23T11:25:16.728Z,75.44
2023-05-23T11:28:10.064Z,73.68
2023-05-23T11:31:02.748Z,73.25
2023-05-23T11:34:11.803Z,73.27
2023-05-23T11:37:02.639Z,70.27
2023-05-23T11:43:22.008Z,69.27
2023-05-23T11:49:19.574Z,68.01
2023-05-23T11:55:30.773Z,66.46
2023-05-23T11:58:27.695Z,67.06
2023-05-23T12:01:21.182Z,64.80
2023-05-23T12:04:13.947Z,66.11
2023-05-23T12:07:08.160Z,65.80
2023-05-23T12:10:00.551Z,68.92
2023-05-23T12:12:54.068Z,70.72
2023-05-23T12:16:23.992Z,70.92
2023-05-23T12:19:18.854Z,69.86
2023-05-23T12:22:11.888Z,69.29
2023-05-23T12:28:16.214Z,67.21
2023-05-23T12:34:13.851Z,65.32
2023-05-23T12:40:21.072Z,62.93
2023-05-23T12:46:27.842Z,62.36
2023-05-23T12:49:21.739Z,62.32
2023-05-23T12:52:14.775Z,56.49
2023-05-23T12:55:08.634Z,60.05
2023-05-23T13:01:19.511Z,56.67
2023-05-23T13:07:25.139Z,50.89
2023-05-23T13:10:17.703Z,53.66
2023-05-23T13:13:10.940Z,54.45
2023-05-23T13:16:03.678Z,54.91
2023-05-23T13:18:58.362Z,53.69
2023-05-23T13:21:51.580Z,54.53
2023-05-23T13:24:45.024Z,56.19
2023-05-23T13:27:39.588Z,54.35
2023-05-23T13:30:32.763Z,52.29
2023-05-23T13:33:25.883Z,52.32
2023-05-23T13:36:20.303Z,56.54
2023-05-23T13:39:13.062Z,53.07
2023-05-23T13:42:07.772Z,52.89
2023-05-23T13:45:00.892Z,51.00
2023-05-23T13:47:53.864Z,51.00
2023-05-23T13:50:47.489Z,51.00
2023-05-23T13:53:41.171Z,51.26
2023-05-23T13:56:34.414Z,51.49
2023-05-23T13:59:40.769Z,50.25
2023-05-23T14:02:33.716Z,46.27
2023-05-23T14:08:49.249Z,46.83
2023-05-23T14:11:41.673Z,49.28
2023-05-23T14:14:34.834Z,51.87
2023-05-23T14:17:27.773Z,52.39
2023-05-23T14:20:45.972Z,56.32
2023-05-23T14:23:38.489Z,53.57
2023-05-23T14:26:31.777Z,54.38
2023-05-23T14:29:48.872Z,54.87
2023-05-23T14:32:38.973Z,53.41
2023-05-23T14:35:31.676Z,55.67
2023-05-23T14:38:25.025Z,52.21
2023-05-23T14:41:18.596Z,52.34
2023-05-23T14:44:13.155Z,51.40
2023-05-23T14:47:06.099Z,51.76
2023-05-23T14:49:58.726Z,54.60
2023-05-23T14:52:51.655Z,55.25
2023-05-23T14:55:44.903Z,52.58
2023-05-23T14:58:40.114Z,53.37
2023-05-23T15:01:34.371Z,52.92
2023-05-23T15:04:27.784Z,52.26
2023-05-23T15:07:20.581Z,53.92
2023-05-23T15:10:13.967Z,53.28
2023-05-23T15:13:06.756Z,57.27
2023-05-23T15:15:59.523Z,55.88
2023-05-23T15:18:53.131Z,54.62
2023-05-23T15:21:51.120Z,56.74
2023-05-23T15:24:44.917Z,55.44
2023-05-23T15:27:38.219Z,58.37
2023-05-23T15:30:30.761Z,56.69
2023-05-23T15:33:24.187Z,55.80
2023-05-23T15:39:30.435Z,55.87
2023-05-23T15:45:39.116Z,51.76
2023-05-23T15:51:48.800Z,51.31
2023-05-23T15:54:42.979Z,49.86
2023-05-23T15:57:32.044Z,50.43
2023-05-23T16:00:25.127Z,50.90
2023-05-23T16:03:17.917Z,47.90
2023-05-23T16:06:10.984Z,49.95
2023-05-23T16:09:04.289Z,52.25
2023-05-23T16:11:58.100Z,51.86
2023-05-23T16:18:26.773Z,53.05
2023-05-23T16:21:37.111Z,52.04
2023-05-23T16:24:28.076Z,51.90
2023-05-23T16:31:08.062Z,54.43
2023-05-23T16:34:16.156Z,55.27
2023-05-23T16:37:07.868Z,54.71
2023-05-23T16:43:47.002Z,52.36
2023-05-23T16:46:57.111Z,52.12
2023-05-23T16:49:48.460Z,51.47
2023-05-23T16:56:01.936Z,54.36
2023-05-23T17:02:01.679Z,55.76
2023-05-23T17:08:12.422Z,56.16
2023-05-23T17:14:17.394Z,61.03
2023-05-23T17:17:09.617Z,59.08
2023-05-23T17:19:56.284Z,59.82
2023-05-23T17:22:49.164Z,59.64
2023-05-23T17:25:43.667Z,61.71
2023-05-23T17:28:36.777Z,61.08
2023-05-23T17:31:30.804Z,61.33
2023-05-23T17:34:24.121Z,62.24
2023-05-23T17:40:47.192Z,62.01
2023-05-23T17:44:17.024Z,63.25
2023-05-23T17:47:09.520Z,61.66
2023-05-23T17:50:19.107Z,63.62
2023-05-23T17:53:09.096Z,62.97
2023-05-23T17:59:28.426Z,63.04
2023-05-23T18:05:29.592Z,63.54
2023-05-23T18:11:38.429Z,62.39
2023-05-23T18:17:44.671Z,60.82
2023-05-23T18:20:37.788Z,62.16
2023-05-23T18:23:30.664Z,62.42
2023-05-23T18:26:23.817Z,60.92
2023-05-23T18:29:16.910Z,61.02
2023-05-23T18:32:11.848Z,61.98
2023-05-23T18:35:06.712Z,63.09
2023-05-23T18:38:00.030Z,62.85
2023-05-23T18:40:53.132Z,64.60
2023-05-23T18:43:39.866Z,64.92
2023-05-23T18:46:32.855Z,64.63
2023-05-23T18:49:26.266Z,65.26
2023-05-23T18:52:20.061Z,65.78
2023-05-23T18:55:12.904Z,67.09
2023-05-23T18:58:08.532Z,66.21
2023-05-23T19:01:03.522Z,65.76
2023-05-23T19:03:56.906Z,66.14
2023-05-23T19:06:51.204Z,67.87
2023-05-23T19:09:46.095Z,68.78
2023-05-23T19:12:39.730Z,68.91
2023-05-23T19:15:32.870Z,68.96
2023-05-23T19:21:46.696Z,70.51
2023-05-23T19:28:06.044Z,72.70
2023-05-23T19:30:58.635Z,72.51
2023-05-23T19:33:52.072Z,72.70
2023-05-23T19:36:44.717Z,72.58
2023-05-23T19:42:54.300Z,72.85
2023-05-23T19:45:48.337Z,72.95
2023-05-23T19:48:40.683Z,72.38
2023-05-23T19:51:35.738Z,72.71
2023-05-23T19:54:29.974Z,72.95
2023-05-23T19:57:23.007Z,73.19
2023-05-23T20:03:35.165Z,73.78
2023-05-23T20:09:40.082Z,73.60
2023-05-23T20:12:32.949Z,74.30
2023-05-23T20:15:39.957Z,74.05
2023-05-23T20:18:34.929Z,74.40
2023-05-23T20:21:27.891Z,73.80
2023-05-23T20:24:20.983Z,74.44
2023-05-23T20:27:13.666Z,75.07
2023-05-23T20:30:08.058Z,75.17
2023-05-23T20:33:00.991Z,75.69
2023-05-23T20:36:06.847Z,76.36
2023-05-23T20:39:00.142Z,76.91
2023-05-23T20:41:53.584Z,77.38
2023-05-23T20:47:53.749Z,77.66
2023-05-23T20:50:47.509Z,78.50
2023-05-23T20:53:41.556Z,78.82
2023-05-23T20:57:11.017Z,79.04
2023-05-23T21:00:09.530Z,79.41
2023-05-23T21:03:18.874Z,79.85
2023-05-23T21:06:09.423Z,79.89
2023-05-23T21:09:02.974Z,80.31
2023-05-23T21:11:57.316Z,79.67
2023-05-23T21:14:57.374Z,79.90
2023-05-23T21:17:51.083Z,80.12
2023-05-23T21:21:01.126Z,79.96
2023-05-23T21:23:50.769Z,80.31
2023-05-23T21:26:45.419Z,80.52
2023-05-23T21:29:38.018Z,81.19
2023-05-23T21:32:30.667Z,81.77
2023-05-23T21:35:23.892Z,81.76
2023-05-23T21:38:16.936Z,82.70
2023-05-23T21:41:09.728Z,82.75
2023-05-23T21:44:09.288Z,82.98
2023-05-23T21:47:02.065Z,83.40
2023-05-23T21:49:54.857Z,83.58
2023-05-23T21:52:48.006Z,83.88
2023-05-23T21:55:40.931Z,83.79
2023-05-23T21:58:33.973Z,84.00
2023-05-23T22:01:28.070Z,84.25
2023-05-23T22:04:58.011Z,83.97
2023-05-23T22:07:50.468Z,85.28
2023-05-23T22:10:44.031Z,84.51
2023-05-23T22:13:36.831Z,84.30
2023-05-23T22:16:32.866Z,84.58
2023-05-23T22:19:26.046Z,84.95
2023-05-23T22:22:18.744Z,85.03
2023-05-23T22:25:11.611Z,85.49
2023-05-23T22:28:03.404Z,85.86
2023-05-23T22:30:56.381Z,86.03
2023-05-23T22:33:50.173Z,86.29
2023-05-23T22:36:42.888Z,86.13
2023-05-23T22:39:35.664Z,86.00
2023-05-23T22:45:45.132Z,87.20
2023-05-23T22:48:38.999Z,87.33
2023-05-23T22:51:34.311Z,87.23
2023-05-23T22:54:26.711Z,87.22
2023-05-23T22:57:20.081Z,87.42
2023-05-23T23:00:13.981Z,88.01
2023-05-23T23:06:23.086Z,87.97
2023-05-23T23:12:25.122Z,88.07
2023-05-23T23:15:18.120Z,88.07
2023-05-23T23:21:28.150Z,88.07
2023-05-23T23:27:38.529Z,88.51
2023-05-23T23:30:30.488Z,88.44
2023-05-23T23:33:22.929Z,88.50
2023-05-23T23:36:09.781Z,88.84
2023-05-23T23:38:55.881Z,89.10
2023-05-23T23:41:41.850Z,89.36
2023-05-23T23:44:29.525Z,89.39
2023-05-23T23:47:15.816Z,89.63
2023-05-23T23:50:06.686Z,89.05
2023-05-23T23:52:53.215Z,89.19
2023-05-23T23:55:39.023Z,89.49
2023-05-23T23:58:25.072Z,89.73
